createdAt,value
2023-05-16T00:00:13.819Z,6.13
2023-05-16T00:02:40.786Z,6.53
2023-05-16T00:05:08.008Z,4.43
2023-05-16T00:07:35.034Z,5.47
2023-05-16T00:10:01.743Z,3.47
2023-05-16T00:12:29.259Z,6.97
2023-05-16T00:14:57.038Z,6.00
2023-05-16T00:17:23.867Z,6.10
2023-05-16T00:19:58.157Z,8.15
2023-05-16T00:22:25.499Z,8.57
2023-05-16T00:24:52.513Z,11.75
2023-05-16T00:27:19.108Z,5.80
2023-05-16T00:29:45.730Z,7.70
2023-05-16T00:32:12.472Z,9.88
2023-05-16T00:34:39.177Z,10.73
2023-05-16T00:37:06.162Z,8.00
2023-05-16T00:39:32.753Z,6.57
2023-05-16T00:41:59.345Z,10.55
2023-05-16T00:44:26.457Z,6.90
2023-05-16T00:46:54.112Z,7.68
2023-05-16T00:49:21.405Z,6.43
2023-05-16T00:51:48.826Z,10.68
2023-05-16T00:54:15.482Z,7.35
2023-05-16T00:56:42.207Z,8.00
2023-05-16T00:59:08.786Z,8.02
2023-05-16T01:01:37.256Z,12.63
2023-05-16T01:04:04.630Z,11.38
2023-05-16T01:06:33.581Z,10.48
2023-05-16T01:09:00.515Z,10.93
2023-05-16T01:11:50.475Z,10.43
2023-05-16T01:14:29.053Z,7.90
2023-05-16T01:17:13.117Z,8.45
2023-05-16T01:19:48.795Z,8.52
2023-05-16T01:22:32.124Z,9.35
2023-05-16T01:25:27.137Z,9.02
2023-05-16T01:27:56.399Z,7.28
2023-05-16T01:30:22.960Z,10.45
2023-05-16T01:32:49.575Z,10.07
2023-05-16T01:35:17.556Z,9.98
2023-05-16T01:37:56.518Z,8.43
2023-05-16T01:40:29.553Z,6.00
2023-05-16T01:42:56.829Z,9.48
2023-05-16T01:45:29.637Z,10.32
2023-05-16T01:48:08.962Z,10.95
2023-05-16T01:50:43.762Z,12.38
2023-05-16T01:53:22.778Z,8.38
2023-05-16T01:55:52.041Z,10.85
2023-05-16T01:58:26.093Z,16.60
2023-05-16T02:01:01.709Z,11.90
2023-05-16T02:03:28.715Z,13.20
2023-05-16T02:05:55.302Z,12.02
2023-05-16T02:08:21.943Z,10.75
2023-05-16T02:10:48.490Z,7.90
2023-05-16T02:13:15.056Z,14.15
2023-05-16T02:15:41.836Z,11.93
2023-05-16T02:18:09.499Z,13.55
2023-05-16T02:20:36.129Z,8.77
2023-05-16T02:23:03.265Z,9.38
2023-05-16T02:25:29.957Z,9.00
2023-05-16T02:27:56.626Z,16.98
2023-05-16T02:30:23.323Z,11.68
2023-05-16T02:32:50.012Z,9.73
2023-05-16T02:35:16.653Z,10.70
2023-05-16T02:37:43.339Z,10.30
2023-05-16T02:40:10.511Z,11.68
2023-05-16T02:42:37.088Z,11.68
2023-05-16T02:45:03.907Z,16.15
2023-05-16T02:47:30.543Z,10.93
2023-05-16T02:49:57.276Z,12.35
2023-05-16T02:52:23.836Z,11.68
2023-05-16T02:55:09.452Z,9.80
2023-05-16T02:57:37.397Z,18.75
2023-05-16T03:00:05.997Z,14.02
2023-05-16T03:02:32.820Z,13.15
2023-05-16T03:04:59.466Z,17.02
2023-05-16T03:07:26.197Z,10.85
2023-05-16T03:09:53.367Z,13.30
2023-05-16T03:12:19.913Z,12.70
2023-05-16T03:14:46.456Z,9.90
2023-05-16T03:17:13.162Z,11.93
2023-05-16T03:19:39.832Z,14.40
2023-05-16T03:22:06.449Z,8.77
2023-05-16T03:24:33.187Z,15.77
2023-05-16T03:27:00.163Z,11.75
2023-05-16T03:29:27.185Z,8.85
2023-05-16T03:31:54.450Z,17.20
2023-05-16T03:34:21.344Z,8.68
2023-05-16T03:36:49.356Z,8.27
2023-05-16T03:39:16.823Z,6.45
2023-05-16T03:41:43.803Z,10.23
2023-05-16T03:44:10.506Z,11.98
2023-05-16T03:46:37.127Z,10.30
2023-05-16T03:49:03.861Z,16.75
2023-05-16T03:51:30.510Z,11.02
2023-05-16T03:53:57.301Z,12.32
2023-05-16T03:56:23.867Z,10.48
2023-05-16T03:58:50.941Z,10.18
2023-05-16T04:01:17.544Z,7.93
2023-05-16T04:03:44.472Z,13.27
2023-05-16T04:06:11.120Z,8.35
2023-05-16T04:08:39.966Z,8.90
2023-05-16T04:11:06.543Z,4.90
2023-05-16T04:13:33.142Z,9.65
2023-05-16T04:15:59.679Z,8.63
2023-05-16T04:18:26.697Z,13.75
2023-05-16T04:20:53.264Z,8.70
2023-05-16T04:23:19.788Z,12.68
2023-05-16T04:25:46.622Z,15.23
2023-05-16T04:28:13.574Z,12.02
2023-05-16T04:30:40.411Z,6.78
2023-05-16T04:33:07.174Z,12.38
2023-05-16T04:35:33.814Z,6.97
2023-05-16T04:38:00.414Z,12.75
2023-05-16T04:40:27.117Z,6.85
2023-05-16T04:42:54.513Z,10.35
2023-05-16T04:45:21.769Z,13.57
2023-05-16T04:47:48.380Z,9.05
2023-05-16T04:50:16.093Z,10.13
2023-05-16T04:52:42.883Z,9.98
2023-05-16T04:55:10.367Z,9.82
2023-05-16T04:57:36.965Z,8.35
2023-05-16T05:00:06.942Z,6.75
2023-05-16T05:02:33.648Z,6.03
2023-05-16T05:05:00.284Z,6.93
2023-05-16T05:07:29.074Z,11.15
2023-05-16T05:09:58.428Z,6.85
2023-05-16T05:12:25.321Z,12.77
2023-05-16T05:14:51.924Z,6.88
2023-05-16T05:17:18.579Z,12.13
2023-05-16T05:19:45.264Z,8.80
2023-05-16T05:22:12.230Z,10.15
2023-05-16T05:24:38.775Z,9.30
2023-05-16T05:27:05.588Z,7.82
2023-05-16T05:29:32.375Z,9.60
2023-05-16T05:31:59.155Z,7.53
2023-05-16T05:34:25.895Z,11.90
2023-05-16T05:36:52.526Z,7.60
2023-05-16T05:39:19.422Z,9.15
2023-05-16T05:41:46.195Z,7.20
2023-05-16T05:44:12.824Z,6.18
2023-05-16T05:46:39.901Z,10.68
2023-05-16T05:49:06.748Z,6.75
2023-05-16T05:51:33.500Z,6.65
2023-05-16T05:54:00.181Z,10.48
2023-05-16T05:56:26.749Z,13.50
2023-05-16T05:58:53.354Z,7.38
2023-05-16T06:01:21.213Z,6.28
2023-05-16T06:03:48.151Z,9.35
2023-05-16T06:06:15.268Z,7.78
2023-05-16T06:08:41.936Z,6.38
2023-05-16T06:11:08.964Z,11.45
2023-05-16T06:13:35.725Z,8.35
2023-05-16T06:16:02.378Z,8.13
2023-05-16T06:18:30.008Z,8.70
2023-05-16T06:20:56.754Z,7.50
2023-05-16T06:23:23.344Z,9.73
2023-05-16T06:25:50.874Z,7.30
2023-05-16T06:28:17.436Z,6.47
2023-05-16T06:30:44.254Z,9.65
2023-05-16T06:33:11.271Z,6.38
2023-05-16T06:35:38.058Z,4.65
2023-05-16T06:38:04.772Z,8.52
2023-05-16T06:40:31.327Z,7.82
2023-05-16T06:42:58.638Z,6.95
2023-05-16T06:45:26.040Z,8.00
2023-05-16T06:47:55.178Z,5.43
2023-05-16T06:50:23.291Z,5.93
2023-05-16T06:52:49.917Z,5.60
2023-05-16T06:55:16.785Z,6.07
2023-05-16T06:57:43.467Z,8.35
2023-05-16T07:00:10.521Z,12.00
2023-05-16T07:02:37.195Z,7.18
2023-05-16T07:05:04.116Z,4.75
2023-05-16T07:07:31.005Z,5.07
2023-05-16T07:09:57.612Z,7.28
2023-05-16T07:12:24.218Z,5.50
2023-05-16T07:14:51.519Z,5.40
2023-05-16T07:17:18.173Z,5.05
2023-05-16T07:19:44.887Z,5.50
2023-05-16T07:22:12.104Z,6.60
2023-05-16T07:24:38.848Z,6.63
2023-05-16T07:27:05.558Z,6.18
2023-05-16T07:29:32.313Z,3.80
2023-05-16T07:31:59.475Z,2.03
2023-05-16T07:34:26.393Z,5.22
2023-05-16T07:36:53.197Z,6.53
2023-05-16T07:39:19.795Z,4.95
2023-05-16T07:41:46.453Z,6.88
2023-05-16T07:44:13.426Z,3.58
2023-05-16T07:46:40.260Z,8.57
2023-05-16T07:49:06.883Z,8.15
2023-05-16T07:51:33.810Z,4.90
2023-05-16T07:54:00.500Z,7.65
2023-05-16T07:56:27.245Z,4.32
2023-05-16T07:58:55.117Z,6.40
2023-05-16T08:01:21.787Z,6.80
2023-05-16T08:03:48.561Z,8.80
2023-05-16T08:06:15.527Z,4.10
2023-05-16T08:08:42.187Z,3.65
2023-05-16T08:11:08.830Z,5.47
2023-05-16T08:13:35.437Z,4.35
2023-05-16T08:16:02.151Z,4.20
2023-05-16T08:18:28.839Z,3.85
2023-05-16T08:20:55.600Z,3.75
2023-05-16T08:23:22.409Z,1.80
2023-05-16T08:25:49.159Z,4.13
2023-05-16T08:28:16.383Z,3.28
2023-05-16T08:30:43.822Z,2.97
2023-05-16T08:33:11.918Z,2.95
2023-05-16T08:35:43.403Z,4.55
2023-05-16T08:38:10.245Z,7.47
2023-05-16T08:40:37.046Z,4.53
2023-05-16T08:43:04.098Z,4.75
2023-05-16T08:45:31.438Z,5.05
2023-05-16T08:48:01.300Z,5.75
2023-05-16T08:50:32.375Z,5.10
2023-05-16T08:53:06.975Z,6.10
2023-05-16T08:55:34.764Z,4.15
2023-05-16T08:58:02.115Z,4.65
2023-05-16T09:00:28.872Z,5.30
2023-05-16T09:02:55.980Z,4.45
2023-05-16T09:05:23.778Z,3.70
2023-05-16T09:07:50.604Z,3.55
2023-05-16T09:10:17.315Z,2.92
2023-05-16T09:12:45.557Z,3.60
2023-05-16T09:15:12.508Z,3.50
2023-05-16T09:17:47.083Z,6.68
2023-05-16T09:20:21.402Z,5.28
2023-05-16T09:22:56.017Z,4.18
2023-05-16T09:27:58.174Z,4.88
2023-05-16T09:30:31.316Z,5.13
2023-05-16T09:32:58.142Z,4.45
2023-05-16T09:35:39.600Z,6.70
2023-05-16T09:38:17.420Z,7.18
2023-05-16T09:40:45.081Z,11.10
2023-05-16T09:43:16.198Z,6.43
2023-05-16T09:46:14.519Z,8.48
2023-05-16T09:48:48.035Z,4.82
2023-05-16T09:51:15.344Z,3.70
2023-05-16T09:53:42.298Z,8.95
2023-05-16T09:56:13.774Z,3.08
2023-05-16T09:58:43.375Z,4.80
2023-05-16T10:01:11.446Z,2.42
2023-05-16T10:03:41.228Z,2.70
2023-05-16T10:06:09.118Z,3.65
2023-05-16T10:08:37.186Z,4.68
2023-05-16T10:11:05.749Z,4.30
2023-05-16T10:13:34.746Z,5.50
2023-05-16T10:16:08.326Z,4.25
2023-05-16T10:18:36.401Z,5.43
2023-05-16T10:21:11.603Z,2.72
2023-05-16T10:23:42.703Z,3.85
2023-05-16T10:26:11.187Z,4.47
2023-05-16T10:28:38.152Z,3.25
2023-05-16T10:31:05.825Z,3.63
2023-05-16T10:33:32.419Z,3.25
2023-05-16T10:35:59.109Z,5.53
2023-05-16T10:38:27.801Z,3.40
2023-05-16T10:40:55.044Z,3.33
2023-05-16T10:43:26.913Z,2.40
2023-05-16T10:45:58.448Z,3.33
2023-05-16T10:48:37.582Z,2.35
2023-05-16T10:51:25.934Z,3.40
2023-05-16T10:53:54.038Z,5.90
2023-05-16T10:56:25.412Z,4.63
2023-05-16T10:58:54.322Z,2.78
2023-05-16T11:01:27.951Z,4.53
2023-05-16T11:04:01.132Z,3.10
2023-05-16T11:06:35.655Z,3.28
2023-05-16T11:09:14.158Z,4.65
2023-05-16T11:11:49.668Z,3.63
2023-05-16T11:14:23.766Z,2.45
2023-05-16T11:17:15.921Z,4.88
2023-05-16T11:19:52.639Z,3.75
2023-05-16T11:22:19.192Z,2.33
2023-05-16T11:24:51.148Z,3.03
2023-05-16T11:27:22.934Z,5.25
2023-05-16T11:29:50.181Z,3.30
2023-05-16T11:32:21.066Z,3.20
2023-05-16T11:34:48.223Z,2.60
2023-05-16T11:37:15.979Z,2.92
2023-05-16T11:39:43.191Z,3.42
2023-05-16T11:42:09.896Z,5.72
2023-05-16T11:44:36.636Z,4.28
2023-05-16T11:47:04.171Z,1.88
2023-05-16T11:49:31.409Z,2.85
2023-05-16T11:51:58.272Z,2.05
2023-05-16T11:54:25.604Z,3.72
2023-05-16T11:56:52.799Z,0.95
2023-05-16T11:59:20.789Z,2.35
2023-05-16T12:01:50.486Z,3.83
2023-05-16T12:04:18.307Z,3.97
2023-05-16T12:06:45.643Z,6.63
2023-05-16T12:09:18.199Z,2.42
2023-05-16T12:11:45.622Z,3.03
2023-05-16T12:14:13.115Z,4.40
2023-05-16T12:16:44.035Z,3.03
2023-05-16T12:19:11.658Z,3.97
2023-05-16T12:21:39.036Z,3.53
2023-05-16T12:24:09.062Z,4.18
2023-05-16T12:26:35.850Z,6.82
2023-05-16T12:29:05.695Z,6.75
2023-05-16T12:31:36.641Z,5.57
2023-05-16T12:34:03.304Z,3.17
2023-05-16T12:36:36.786Z,4.65
2023-05-16T12:39:04.270Z,3.40
2023-05-16T12:41:31.930Z,1.65
2023-05-16T12:44:12.309Z,4.32
2023-05-16T12:46:51.282Z,3.60
2023-05-16T12:49:22.645Z,2.90
2023-05-16T12:51:54.025Z,4.07
2023-05-16T12:54:22.880Z,5.93
2023-05-16T12:56:49.850Z,5.65
2023-05-16T12:59:16.817Z,3.75
2023-05-16T13:01:45.976Z,4.20
2023-05-16T13:04:18.259Z,2.90
2023-05-16T13:06:58.425Z,3.85
2023-05-16T13:09:30.068Z,5.93
2023-05-16T13:11:57.907Z,4.10
2023-05-16T13:14:24.566Z,6.30
2023-05-16T13:16:51.458Z,2.63
2023-05-16T13:19:18.183Z,5.90
2023-05-16T13:21:44.811Z,5.07
2023-05-16T13:24:11.373Z,5.75
2023-05-16T13:26:38.554Z,4.70
2023-05-16T13:29:05.480Z,5.30
2023-05-16T13:31:32.167Z,3.42
2023-05-16T13:33:59.151Z,3.50
2023-05-16T13:36:25.876Z,4.45
2023-05-16T13:38:53.178Z,5.45
2023-05-16T13:41:19.898Z,5.28
2023-05-16T13:43:46.649Z,4.32
2023-05-16T13:46:13.350Z,7.53
2023-05-16T13:48:40.060Z,6.15
2023-05-16T13:51:06.808Z,4.72
2023-05-16T13:53:33.542Z,3.58
2023-05-16T13:56:00.161Z,4.18
2023-05-16T13:58:27.232Z,4.65
2023-05-16T14:00:54.316Z,4.47
2023-05-16T14:03:21.275Z,4.88
2023-05-16T14:05:52.329Z,5.13
2023-05-16T14:08:18.906Z,4.90
2023-05-16T14:10:45.736Z,4.65
2023-05-16T14:13:12.378Z,3.67
2023-05-16T14:15:39.076Z,3.97
2023-05-16T14:18:06.350Z,5.85
2023-05-16T14:20:33.276Z,4.00
2023-05-16T14:22:59.903Z,5.07
2023-05-16T14:25:26.892Z,4.88
2023-05-16T14:27:53.754Z,6.20
2023-05-16T14:30:20.440Z,6.57
2023-05-16T14:32:47.147Z,4.70
2023-05-16T14:35:13.972Z,7.32
2023-05-16T14:37:41.049Z,4.35
2023-05-16T14:40:09.162Z,7.97
2023-05-16T14:42:36.119Z,5.60
2023-05-16T14:45:02.945Z,6.30
2023-05-16T14:47:31.219Z,6.32
2023-05-16T14:49:57.959Z,3.92
2023-05-16T14:52:24.669Z,3.70
2023-05-16T14:54:51.336Z,6.95
2023-05-16T14:57:18.050Z,6.20
2023-05-16T14:59:44.691Z,4.38
2023-05-16T15:02:11.420Z,7.10
2023-05-16T15:04:38.086Z,6.30
2023-05-16T15:07:04.886Z,8.27
2023-05-16T15:09:31.517Z,6.57
2023-05-16T15:11:58.226Z,7.65
2023-05-16T15:14:27.125Z,6.35
2023-05-16T15:16:54.119Z,7.93
2023-05-16T15:19:21.142Z,8.43
2023-05-16T15:21:48.089Z,7.13
2023-05-16T15:24:15.215Z,8.70
2023-05-16T15:26:42.281Z,3.78
2023-05-16T15:29:08.951Z,6.00
2023-05-16T15:31:35.650Z,4.97
2023-05-16T15:34:02.286Z,5.97
2023-05-16T15:36:29.057Z,6.28
2023-05-16T15:38:55.901Z,3.25
2023-05-16T15:41:43.156Z,5.70
2023-05-16T15:44:10.053Z,3.15
2023-05-16T15:46:36.739Z,3.13
2023-05-16T15:49:03.493Z,4.28
2023-05-16T15:51:30.086Z,4.18
2023-05-16T15:53:56.971Z,3.95
2023-05-16T15:56:23.731Z,4.20
2023-05-16T15:58:50.314Z,5.63
2023-05-16T16:01:17.219Z,5.00
2023-05-16T16:03:44.035Z,6.70
2023-05-16T16:06:10.869Z,9.25
2023-05-16T16:08:59.726Z,5.80
2023-05-16T16:11:27.163Z,4.60
2023-05-16T16:13:53.813Z,6.28
2023-05-16T16:16:20.631Z,6.60
2023-05-16T16:18:47.509Z,7.05
2023-05-16T16:21:14.167Z,4.75
2023-05-16T16:23:42.020Z,4.75
2023-05-16T16:26:08.911Z,3.53
2023-05-16T16:28:35.715Z,6.38
2023-05-16T16:31:02.453Z,5.53
2023-05-16T16:33:29.091Z,5.20
2023-05-16T16:35:55.780Z,4.72
2023-05-16T16:38:22.538Z,6.18
2023-05-16T16:40:49.452Z,6.10
2023-05-16T16:43:16.141Z,5.25
2023-05-16T16:45:43.172Z,4.43
2023-05-16T16:48:10.691Z,6.47
2023-05-16T16:50:37.483Z,9.63
2023-05-16T16:53:05.216Z,7.45
2023-05-16T16:55:32.157Z,6.82
2023-05-16T16:57:59.382Z,7.70
2023-05-16T17:00:26.115Z,5.07
2023-05-16T17:02:52.876Z,9.95
2023-05-16T17:05:19.581Z,7.75
2023-05-16T17:07:46.520Z,8.02
2023-05-16T17:10:13.243Z,7.43
2023-05-16T17:12:46.835Z,7.22
2023-05-16T17:15:13.405Z,10.93
2023-05-16T17:17:40.005Z,7.10
2023-05-16T17:20:07.587Z,7.93
2023-05-16T17:22:34.482Z,5.50
2023-05-16T17:25:01.340Z,10.18
2023-05-16T17:27:27.987Z,7.57
2023-05-16T17:29:54.608Z,5.75
2023-05-16T17:32:21.508Z,7.82
2023-05-16T17:34:48.299Z,6.00
2023-05-16T17:37:14.944Z,7.25
2023-05-16T17:39:42.066Z,6.80
2023-05-16T17:42:10.866Z,5.97
2023-05-16T17:44:37.522Z,7.97
2023-05-16T17:47:04.177Z,8.30
2023-05-16T17:49:31.030Z,7.18
2023-05-16T17:51:58.131Z,8.23
2023-05-16T17:54:27.046Z,8.98
2023-05-16T17:56:53.693Z,10.40
2023-05-16T17:59:20.408Z,7.22
2023-05-16T18:01:47.528Z,8.55
2023-05-16T18:04:14.414Z,9.20
2023-05-16T18:06:41.827Z,10.35
2023-05-16T18:09:10.174Z,9.63
2023-05-16T18:11:38.863Z,7.85
2023-05-16T18:14:05.728Z,14.15
2023-05-16T18:16:32.930Z,9.10
2023-05-16T18:18:59.713Z,12.02
2023-05-16T18:21:26.636Z,10.63
2023-05-16T18:23:54.499Z,6.15
2023-05-16T18:26:22.233Z,6.68
2023-05-16T18:28:51.337Z,8.88
2023-05-16T18:31:18.092Z,9.43
2023-05-16T18:33:44.848Z,7.63
2023-05-16T18:36:14.432Z,7.38
2023-05-16T18:38:41.244Z,9.57
2023-05-16T18:41:08.160Z,9.73
2023-05-16T18:43:36.539Z,13.73
2023-05-16T18:46:04.525Z,9.80
2023-05-16T18:48:32.421Z,8.95
2023-05-16T18:51:00.720Z,11.15
2023-05-16T18:53:27.466Z,9.23
2023-05-16T18:55:54.258Z,7.90
2023-05-16T18:58:21.311Z,10.50
2023-05-16T19:00:48.377Z,11.98
2023-05-16T19:03:15.230Z,9.93
2023-05-16T19:05:42.172Z,9.38
2023-05-16T19:08:08.933Z,6.65
2023-05-16T19:10:38.472Z,10.75
2023-05-16T19:13:08.326Z,9.07
2023-05-16T19:15:36.310Z,7.20
2023-05-16T19:18:04.779Z,9.18
2023-05-16T19:20:33.522Z,11.98
2023-05-16T19:23:00.866Z,10.55
2023-05-16T19:25:28.268Z,11.25
2023-05-16T19:27:55.131Z,8.05
2023-05-16T19:30:23.236Z,7.90
2023-05-16T19:32:51.303Z,6.10
2023-05-16T19:35:19.026Z,6.35
2023-05-16T19:37:46.415Z,12.68
2023-05-16T19:40:15.467Z,6.68
2023-05-16T19:42:43.866Z,8.27
2023-05-16T19:45:10.960Z,8.18
2023-05-16T19:47:40.699Z,7.68
2023-05-16T19:50:08.083Z,11.95
2023-05-16T19:52:36.254Z,8.60
2023-05-16T19:55:03.317Z,10.25
2023-05-16T19:57:30.114Z,9.88
2023-05-16T19:59:56.831Z,7.22
2023-05-16T20:02:24.656Z,9.63
2023-05-16T20:04:51.980Z,12.10
2023-05-16T20:07:18.863Z,6.68
2023-05-16T20:09:45.860Z,9.50
2023-05-16T20:12:12.862Z,8.63
2023-05-16T20:14:39.955Z,6.63
2023-05-16T20:17:06.792Z,6.63
2023-05-16T20:19:33.746Z,6.45
2023-05-16T20:22:01.180Z,5.88
2023-05-16T20:24:27.943Z,10.35
2023-05-16T20:26:54.610Z,10.40
2023-05-16T20:29:21.549Z,8.05
2023-05-16T20:31:48.415Z,11.82
2023-05-16T20:34:15.216Z,7.72
2023-05-16T20:36:41.917Z,10.15
2023-05-16T20:39:09.091Z,6.22
2023-05-16T20:41:35.792Z,9.23
2023-05-16T20:44:02.463Z,7.72
2023-05-16T20:46:29.201Z,6.68
2023-05-16T20:48:55.933Z,13.68
2023-05-16T20:51:22.719Z,9.68
2023-05-16T20:53:49.462Z,9.95
2023-05-16T20:56:16.236Z,7.47
2023-05-16T20:58:43.675Z,11.02
2023-05-16T21:01:10.498Z,9.18
2023-05-16T21:03:37.275Z,10.98
2023-05-16T21:06:04.175Z,11.48
2023-05-16T21:08:30.998Z,8.73
2023-05-16T21:10:57.747Z,8.02
2023-05-16T21:13:24.449Z,7.65
2023-05-16T21:15:51.209Z,10.52
2023-05-16T21:18:17.903Z,18.05
2023-05-16T21:20:44.671Z,11.85
2023-05-16T21:23:11.910Z,10.15
2023-05-16T21:25:38.772Z,17.00
2023-05-16T21:28:05.687Z,9.20
2023-05-16T21:30:32.402Z,12.07
2023-05-16T21:32:59.252Z,8.30
2023-05-16T21:35:26.840Z,6.53
2023-05-16T21:37:53.599Z,10.10
2023-05-16T21:40:24.824Z,13.70
2023-05-16T21:42:52.501Z,9.75
2023-05-16T21:45:19.382Z,9.73
2023-05-16T21:47:47.035Z,12.65
2023-05-16T21:50:13.886Z,11.20
2023-05-16T21:52:41.380Z,13.35
2023-05-16T21:55:08.933Z,9.43
2023-05-16T21:57:35.930Z,14.77
2023-05-16T22:00:06.732Z,13.43
2023-05-16T22:02:33.763Z,11.73
2023-05-16T22:05:00.646Z,10.82
2023-05-16T22:07:30.287Z,12.73
2023-05-16T22:09:56.958Z,11.23
2023-05-16T22:12:24.088Z,13.07
2023-05-16T22:14:51.630Z,14.25
2023-05-16T22:17:19.475Z,10.20
2023-05-16T22:19:46.721Z,9.57
2023-05-16T22:22:13.473Z,9.98
2023-05-16T22:24:40.375Z,10.73
2023-05-16T22:27:07.310Z,8.52
2023-05-16T22:29:38.115Z,13.75
2023-05-16T22:32:09.249Z,11.15
2023-05-16T22:34:39.649Z,12.05
2023-05-16T22:37:07.627Z,9.05
2023-05-16T22:39:34.683Z,13.60
2023-05-16T22:42:01.624Z,10.98
2023-05-16T22:44:28.905Z,11.45
2023-05-16T22:46:55.828Z,14.30
2023-05-16T22:49:22.602Z,10.63
2023-05-16T22:51:49.863Z,14.88
2023-05-16T22:54:16.864Z,14.70
2023-05-16T22:56:44.615Z,9.98
2023-05-16T22:59:11.426Z,16.92
2023-05-16T23:01:38.092Z,13.07
2023-05-16T23:04:05.309Z,9.93
2023-05-16T23:06:32.655Z,13.93
2023-05-16T23:09:03.980Z,12.57
2023-05-16T23:11:33.447Z,11.50
2023-05-16T23:14:00.142Z,11.82
2023-05-16T23:16:26.816Z,8.00
2023-05-16T23:18:53.548Z,8.07
2023-05-16T23:21:20.295Z,11.55
2023-05-16T23:23:46.951Z,11.77
2023-05-16T23:26:13.661Z,11.38
2023-05-16T23:28:40.373Z,13.48
2023-05-16T23:31:07.019Z,11.30
2023-05-16T23:33:33.716Z,11.55
2023-05-16T23:36:00.564Z,13.15
2023-05-16T23:38:27.494Z,16.95
2023-05-16T23:40:54.115Z,14.90
2023-05-16T23:43:21.276Z,16.42
2023-05-16T23:45:47.940Z,13.40
2023-05-16T23:48:14.930Z,9.13
2023-05-16T23:50:41.618Z,12.95
2023-05-16T23:53:08.281Z,11.95
2023-05-16T23:55:35.079Z,12.10
2023-05-16T23:58:01.810Z,9.70
